Hydeville, Vermont
Current Conditions -  °F | °C
As of 2:35 AM on Sunday 23 Nov 2014 (Local Time) from KRUT Reporting Station
Overcast Overcast  
Wind Chill: 35°   Ceiling: 1700
Heat Index: 41°   Visibility: 10mi
Dew Point: 36°   Wind: 10mph
Humidity: 81%   Direction: 190°S
Pressure: 30.03"   Gusts: 24mph
Location:  43.61°N, 73.23°W
Report Text: KRUT 230735Z 19009G21KT 160V250 10SM OVC017 05/02 A3003 RMK AO1
Loading
Personal Weather Stations






























Interactive Weather Map New forecast layout! Learn more

10-Day Weather Forecast

Advertisements
Track Severe Weather on mobile